sensor_id;sensor_type;location;lat;lon;timestamp;pressure;altitude;pressure_sealevel;temperature;humidity
31331;BME280;34067;39.548;-76.088;2023-07-29T00:01:18;101338.64;;;25.33;74.64
31331;BME280;34067;39.548;-76.088;2023-07-29T00:03:46;101370.97;;;25.15;81.64
31331;BME280;34067;39.548;-76.088;2023-07-29T00:06:13;101350.26;;;24.66;89.27
31331;BME280;34067;39.548;-76.088;2023-07-29T00:08:41;101435.05;;;25.02;100.00
31331;BME280;34067;39.548;-76.088;2023-07-29T00:11:09;101551.63;;;24.72;90.17
31331;BME280;34067;39.548;-76.088;2023-07-29T00:13:38;101617.45;;;24.05;95.72
31331;BME280;34067;39.548;-76.088;2023-07-29T00:16:06;101646.76;;;22.62;100.00
31331;BME280;34067;39.548;-76.088;2023-07-29T00:18:34;101630.98;;;21.17;100.00
31331;BME280;34067;39.548;-76.088;2023-07-29T00:21:02;101636.88;;;19.98;100.00
31331;BME280;34067;39.548;-76.088;2023-07-29T00:23:30;101652.82;;;19.34;100.00
31331;BME280;34067;39.548;-76.088;2023-07-29T00:25:58;101643.93;;;19.95;100.00
31331;BME280;34067;39.548;-76.088;2023-07-29T00:28:26;101648.27;;;20.17;100.00
31331;BME280;34067;39.548;-76.088;2023-07-29T00:30:53;101659.23;;;20.32;100.00
31331;BME280;34067;39.548;-76.088;2023-07-29T00:33:21;101641.02;;;20.78;100.00
31331;BME280;34067;39.548;-76.088;2023-07-29T00:35:49;101622.81;;;21.43;100.00
31331;BME280;34067;39.548;-76.088;2023-07-29T00:38:17;101602.95;;;21.73;100.00
31331;BME280;34067;39.548;-76.088;2023-07-29T00:40:45;101599.76;;;21.99;100.00
31331;BME280;34067;39.548;-76.088;2023-07-29T00:43:13;101585.08;;;22.95;100.00
31331;BME280;34067;39.548;-76.088;2023-07-29T00:45:43;101570.19;;;22.40;100.00
31331;BME280;34067;39.548;-76.088;2023-07-29T00:48:12;101540.88;;;21.82;100.00
31331;BME280;34067;39.548;-76.088;2023-07-29T00:50:40;101537.58;;;21.70;100.00
31331;BME280;34067;39.548;-76.088;2023-07-29T00:53:08;101524.87;;;21.52;100.00
31331;BME280;34067;39.548;-76.088;2023-07-29T00:55:37;101504.72;;;21.31;100.00
31331;BME280;34067;39.548;-76.088;2023-07-29T00:58:05;101493.34;;;21.60;100.00
31331;BME280;34067;39.548;-76.088;2023-07-29T01:00:33;101491.28;;;22.65;100.00
31331;BME280;34067;39.548;-76.088;2023-07-29T01:03:01;101498.39;;;23.52;100.00
31331;BME280;34067;39.548;-76.088;2023-07-29T01:05:32;101491.65;;;24.54;100.00
31331;BME280;34067;39.548;-76.088;2023-07-29T01:08:09;101493.14;;;25.88;99.93
31331;BME280;34067;39.548;-76.088;2023-07-29T01:10:46;101494.23;;;26.37;96.15
31331;BME280;34067;39.548;-76.088;2023-07-29T01:13:22;101483.63;;;26.02;95.56
31331;BME280;34067;39.548;-76.088;2023-07-29T01:15:55;101479.99;;;26.26;92.21
31331;BME280;34067;39.548;-76.088;2023-07-29T01:18:26;101478.09;;;26.58;91.96
31331;BME280;34067;39.548;-76.088;2023-07-29T01:20:59;101476.09;;;25.38;93.15
31331;BME280;34067;39.548;-76.088;2023-07-29T01:23:30;101482.01;;;25.76;91.47
31331;BME280;34067;39.548;-76.088;2023-07-29T01:25:59;101496.55;;;26.24;90.46
31331;BME280;34067;39.548;-76.088;2023-07-29T01:28:27;101507.06;;;26.60;88.30
31331;BME280;34067;39.548;-76.088;2023-07-29T01:30:59;101523.27;;;26.03;94.70
31331;BME280;34067;39.548;-76.088;2023-07-29T01:33:35;101517.32;;;24.98;94.74
31331;BME280;34067;39.548;-76.088;2023-07-29T01:36:11;101499.16;;;26.00;92.35
31331;BME280;34067;39.548;-76.088;2023-07-29T01:38:42;101496.68;;;25.93;90.03
31331;BME280;34067;39.548;-76.088;2023-07-29T01:41:11;101481.57;;;27.01;89.03
31331;BME280;34067;39.548;-76.088;2023-07-29T01:43:40;101467.11;;;26.73;86.04
31331;BME280;34067;39.548;-76.088;2023-07-29T01:46:09;101468.58;;;26.96;83.40
31331;BME280;34067;39.548;-76.088;2023-07-29T01:48:37;101459.41;;;27.18;82.03
31331;BME280;34067;39.548;-76.088;2023-07-29T01:51:04;101439.11;;;25.18;85.16
31331;BME280;34067;39.548;-76.088;2023-07-29T01:53:33;101427.26;;;26.81;83.35
31331;BME280;34067;39.548;-76.088;2023-07-29T01:56:02;101424.66;;;25.59;87.46
31331;BME280;34067;39.548;-76.088;2023-07-29T01:58:30;101417.58;;;24.46;93.54
31331;BME280;34067;39.548;-76.088;2023-07-29T02:00:57;101405.22;;;23.69;100.00
31331;BME280;34067;39.548;-76.088;2023-07-29T02:03:25;101400.29;;;24.26;97.34
31331;BME280;34067;39.548;-76.088;2023-07-29T02:05:53;101401.71;;;25.36;97.02
31331;BME280;34067;39.548;-76.088;2023-07-29T02:08:21;101401.63;;;24.74;98.79
31331;BME280;34067;39.548;-76.088;2023-07-29T02:10:49;101398.12;;;24.88;98.67
31331;BME280;34067;39.548;-76.088;2023-07-29T02:13:16;101396.67;;;24.34;100.00
31331;BME280;34067;39.548;-76.088;2023-07-29T02:15:44;101403.45;;;24.35;100.00
31331;BME280;34067;39.548;-76.088;2023-07-29T02:18:12;101400.92;;;25.51;98.35
31331;BME280;34067;39.548;-76.088;2023-07-29T02:20:40;101401.91;;;25.78;93.24
31331;BME280;34067;39.548;-76.088;2023-07-29T02:23:08;101398.08;;;26.01;93.51
31331;BME280;34067;39.548;-76.088;2023-07-29T02:25:36;101398.44;;;25.41;99.73
31331;BME280;34067;39.548;-76.088;2023-07-29T02:28:04;101403.34;;;26.33;94.21
31331;BME280;34067;39.548;-76.088;2023-07-29T02:30:31;101408.06;;;26.03;93.17
31331;BME280;34067;39.548;-76.088;2023-07-29T02:32:59;101410.70;;;26.20;92.75
31331;BME280;34067;39.548;-76.088;2023-07-29T02:35:27;101407.57;;;26.55;92.10
31331;BME280;34067;39.548;-76.088;2023-07-29T02:37:55;101403.79;;;26.71;90.23
31331;BME280;34067;39.548;-76.088;2023-07-29T02:40:23;101395.76;;;26.52;89.56
31331;BME280;34067;39.548;-76.088;2023-07-29T02:42:50;101389.43;;;25.32;100.00
31331;BME280;34067;39.548;-76.088;2023-07-29T02:45:18;101398.84;;;25.48;100.00
31331;BME280;34067;39.548;-76.088;2023-07-29T02:47:46;101423.41;;;25.57;100.00
31331;BME280;34067;39.548;-76.088;2023-07-29T02:50:14;101444.53;;;26.61;98.26
31331;BME280;34067;39.548;-76.088;2023-07-29T02:52:41;101446.70;;;26.00;97.73
31331;BME280;34067;39.548;-76.088;2023-07-29T02:55:09;101424.83;;;25.94;100.00
31331;BME280;34067;39.548;-76.088;2023-07-29T02:57:37;101414.27;;;26.54;97.50
31331;BME280;34067;39.548;-76.088;2023-07-29T03:00:06;101404.29;;;27.06;93.51
31331;BME280;34067;39.548;-76.088;2023-07-29T03:02:34;101394.08;;;27.07;92.46
31331;BME280;34067;39.548;-76.088;2023-07-29T03:05:02;101387.21;;;27.12;91.52
31331;BME280;34067;39.548;-76.088;2023-07-29T03:07:30;101379.16;;;26.19;98.95
31331;BME280;34067;39.548;-76.088;2023-07-29T03:09:58;101366.64;;;26.42;97.12
31331;BME280;34067;39.548;-76.088;2023-07-29T03:12:26;101359.17;;;24.75;100.00
31331;BME280;34067;39.548;-76.088;2023-07-29T03:14:54;101362.13;;;25.27;100.00
31331;BME280;34067;39.548;-76.088;2023-07-29T03:17:22;101378.86;;;26.24;100.00
31331;BME280;34067;39.548;-76.088;2023-07-29T03:19:50;101373.87;;;26.73;97.88
31331;BME280;34067;39.548;-76.088;2023-07-29T03:22:18;101362.89;;;26.23;99.69
31331;BME280;34067;39.548;-76.088;2023-07-29T03:24:45;101364.68;;;25.87;100.00
31331;BME280;34067;39.548;-76.088;2023-07-29T03:27:13;101360.84;;;27.06;95.99
31331;BME280;34067;39.548;-76.088;2023-07-29T03:29:41;101357.75;;;27.32;94.19
31331;BME280;34067;39.548;-76.088;2023-07-29T03:32:09;101350.21;;;26.86;94.97
31331;BME280;34067;39.548;-76.088;2023-07-29T03:34:37;101334.73;;;27.56;94.47
31331;BME280;34067;39.548;-76.088;2023-07-29T03:37:04;101335.04;;;27.45;94.55
31331;BME280;34067;39.548;-76.088;2023-07-29T03:39:32;101340.35;;;27.50;94.10
31331;BME280;34067;39.548;-76.088;2023-07-29T03:42:00;101327.82;;;27.37;91.15
31331;BME280;34067;39.548;-76.088;2023-07-29T03:44:28;101336.67;;;27.47;89.34
31331;BME280;34067;39.548;-76.088;2023-07-29T03:46:56;101346.52;;;27.92;89.33
31331;BME280;34067;39.548;-76.088;2023-07-29T03:49:23;101356.45;;;26.88;93.41
31331;BME280;34067;39.548;-76.088;2023-07-29T03:51:51;101349.84;;;26.34;97.96
31331;BME280;34067;39.548;-76.088;2023-07-29T03:54:19;101344.94;;;26.27;96.61
31331;BME280;34067;39.548;-76.088;2023-07-29T03:56:47;101343.94;;;26.59;97.78
31331;BME280;34067;39.548;-76.088;2023-07-29T03:59:15;101333.78;;;26.73;96.34
31331;BME280;34067;39.548;-76.088;2023-07-29T04:01:42;101321.90;;;27.24;94.17
31331;BME280;34067;39.548;-76.088;2023-07-29T04:04:10;101305.55;;;27.70;92.45
31331;BME280;34067;39.548;-76.088;2023-07-29T04:06:38;101294.83;;;27.59;89.44
31331;BME280;34067;39.548;-76.088;2023-07-29T04:09:06;101295.86;;;27.40;89.31
31331;BME280;34067;39.548;-76.088;2023-07-29T04:11:34;101291.92;;;27.67;89.10
31331;BME280;34067;39.548;-76.088;2023-07-29T04:14:02;101287.61;;;27.83;87.42
31331;BME280;34067;39.548;-76.088;2023-07-29T04:16:29;101293.77;;;27.42;88.19
31331;BME280;34067;39.548;-76.088;2023-07-29T04:18:57;101295.29;;;28.22;88.22
31331;BME280;34067;39.548;-76.088;2023-07-29T04:21:25;101284.83;;;27.84;86.58
31331;BME280;34067;39.548;-76.088;2023-07-29T04:23:53;101280.49;;;27.21;92.46
31331;BME280;34067;39.548;-76.088;2023-07-29T04:26:20;101256.41;;;27.92;88.47
31331;BME280;34067;39.548;-76.088;2023-07-29T04:28:48;101264.07;;;26.38;93.59
31331;BME280;34067;39.548;-76.088;2023-07-29T04:31:16;101258.36;;;27.33;90.38
31331;BME280;34067;39.548;-76.088;2023-07-29T04:33:44;101250.66;;;27.40;87.09
31331;BME280;34067;39.548;-76.088;2023-07-29T04:36:12;101248.14;;;27.15;85.91
31331;BME280;34067;39.548;-76.088;2023-07-29T04:38:39;101244.60;;;27.57;85.02
31331;BME280;34067;39.548;-76.088;2023-07-29T04:41:07;101256.94;;;27.98;84.58
31331;BME280;34067;39.548;-76.088;2023-07-29T04:43:35;101257.97;;;27.34;84.81
31331;BME280;34067;39.548;-76.088;2023-07-29T04:46:03;101251.77;;;27.22;85.76
31331;BME280;34067;39.548;-76.088;2023-07-29T04:48:33;101253.25;;;27.54;85.33
31331;BME280;34067;39.548;-76.088;2023-07-29T04:51:01;101261.20;;;27.87;84.35
31331;BME280;34067;39.548;-76.088;2023-07-29T04:53:29;101288.20;;;26.83;85.79
31331;BME280;34067;39.548;-76.088;2023-07-29T04:55:57;101287.66;;;27.40;85.61
31331;BME280;34067;39.548;-76.088;2023-07-29T04:58:25;101301.61;;;27.00;87.56
31331;BME280;34067;39.548;-76.088;2023-07-29T05:03:15;101324.34;;;26.44;88.99
31331;BME280;34067;39.548;-76.088;2023-07-29T05:05:42;101312.59;;;24.52;98.89
31331;BME280;34067;39.548;-76.088;2023-07-29T05:08:10;101305.86;;;24.56;100.00
31331;BME280;34067;39.548;-76.088;2023-07-29T05:10:38;101297.16;;;22.78;100.00
31331;BME280;34067;39.548;-76.088;2023-07-29T05:13:06;101308.67;;;21.86;100.00
31331;BME280;34067;39.548;-76.088;2023-07-29T05:15:35;101304.63;;;23.14;100.00
31331;BME280;34067;39.548;-76.088;2023-07-29T05:18:03;101292.30;;;24.31;100.00
31331;BME280;34067;39.548;-76.088;2023-07-29T05:20:30;101266.01;;;25.38;100.00
31331;BME280;34067;39.548;-76.088;2023-07-29T05:22:58;101295.14;;;23.64;100.00
31331;BME280;34067;39.548;-76.088;2023-07-29T05:25:26;101280.18;;;24.99;100.00
31331;BME280;34067;39.548;-76.088;2023-07-29T05:27:54;101269.90;;;25.50;98.94
31331;BME280;34067;39.548;-76.088;2023-07-29T05:30:22;101265.68;;;26.17;93.64
31331;BME280;34067;39.548;-76.088;2023-07-29T05:32:50;101280.48;;;24.24;100.00
31331;BME280;34067;39.548;-76.088;2023-07-29T05:35:18;101277.42;;;24.54;100.00
31331;BME280;34067;39.548;-76.088;2023-07-29T05:37:46;101264.84;;;24.43;100.00
31331;BME280;34067;39.548;-76.088;2023-07-29T05:40:13;101244.19;;;24.54;100.00
31331;BME280;34067;39.548;-76.088;2023-07-29T05:42:41;101240.68;;;24.42;100.00
31331;BME280;34067;39.548;-76.088;2023-07-29T05:45:10;101243.34;;;22.92;100.00
31331;BME280;34067;39.548;-76.088;2023-07-29T05:47:38;101239.90;;;24.06;100.00
31331;BME280;34067;39.548;-76.088;2023-07-29T05:50:06;101228.16;;;24.43;100.00
31331;BME280;34067;39.548;-76.088;2023-07-29T05:52:34;101219.38;;;23.05;100.00
31331;BME280;34067;39.548;-76.088;2023-07-29T05:55:02;101211.77;;;22.55;100.00
31331;BME280;34067;39.548;-76.088;2023-07-29T05:57:30;101201.97;;;22.81;100.00
31331;BME280;34067;39.548;-76.088;2023-07-29T05:59:58;101195.75;;;22.08;100.00
31331;BME280;34067;39.548;-76.088;2023-07-29T06:02:25;101184.21;;;22.68;100.00
31331;BME280;34067;39.548;-76.088;2023-07-29T06:04:53;101170.28;;;22.78;100.00
31331;BME280;34067;39.548;-76.088;2023-07-29T06:07:21;101155.62;;;22.23;100.00
31331;BME280;34067;39.548;-76.088;2023-07-29T06:09:48;101146.35;;;22.27;100.00
31331;BME280;34067;39.548;-76.088;2023-07-29T06:12:16;101131.17;;;22.22;100.00
31331;BME280;34067;39.548;-76.088;2023-07-29T06:14:44;101123.04;;;22.35;100.00
31331;BME280;34067;39.548;-76.088;2023-07-29T06:17:12;101121.72;;;22.45;100.00
31331;BME280;34067;39.548;-76.088;2023-07-29T06:19:39;101124.92;;;24.34;100.00
31331;BME280;34067;39.548;-76.088;2023-07-29T06:22:09;101132.17;;;25.37;100.00
31331;BME280;34067;39.548;-76.088;2023-07-29T06:24:37;101151.48;;;25.66;96.76
31331;BME280;34067;39.548;-76.088;2023-07-29T06:27:05;101162.94;;;25.34;95.92
31331;BME280;34067;39.548;-76.088;2023-07-29T06:29:33;101175.57;;;25.23;96.56
31331;BME280;34067;39.548;-76.088;2023-07-29T06:32:01;101183.01;;;24.90;97.07
31331;BME280;34067;39.548;-76.088;2023-07-29T06:34:29;101179.04;;;25.37;98.03
31331;BME280;34067;39.548;-76.088;2023-07-29T06:36:57;101174.08;;;24.77;97.94
31331;BME280;34067;39.548;-76.088;2023-07-29T06:39:25;101170.74;;;25.58;95.62
31331;BME280;34067;39.548;-76.088;2023-07-29T06:41:52;101164.84;;;25.79;91.97
31331;BME280;34067;39.548;-76.088;2023-07-29T06:44:20;101174.69;;;26.15;89.90
31331;BME280;34067;39.548;-76.088;2023-07-29T06:46:48;101180.29;;;25.28;90.35
31331;BME280;34067;39.548;-76.088;2023-07-29T06:49:17;101189.05;;;25.74;90.80
31331;BME280;34067;39.548;-76.088;2023-07-29T06:51:45;101199.33;;;25.70;90.55
31331;BME280;34067;39.548;-76.088;2023-07-29T06:54:15;101199.37;;;24.86;93.48
31331;BME280;34067;39.548;-76.088;2023-07-29T06:56:43;101197.43;;;25.39;93.49
31331;BME280;34067;39.548;-76.088;2023-07-29T06:59:11;101192.38;;;25.84;90.98
31331;BME280;34067;39.548;-76.088;2023-07-29T07:01:39;101192.27;;;26.72;89.04
31331;BME280;34067;39.548;-76.088;2023-07-29T07:04:07;101187.86;;;25.81;89.70
31331;BME280;34067;39.548;-76.088;2023-07-29T07:06:35;101181.25;;;25.98;89.30
31331;BME280;34067;39.548;-76.088;2023-07-29T07:09:02;101178.06;;;25.44;90.52
31331;BME280;34067;39.548;-76.088;2023-07-29T07:11:30;101167.49;;;26.12;88.84
31331;BME280;34067;39.548;-76.088;2023-07-29T07:13:58;101162.52;;;25.44;90.88
31331;BME280;34067;39.548;-76.088;2023-07-29T07:16:26;101161.32;;;25.66;90.24
31331;BME280;34067;39.548;-76.088;2023-07-29T07:18:53;101164.37;;;25.74;90.31
31331;BME280;34067;39.548;-76.088;2023-07-29T07:21:21;101168.43;;;25.05;93.17
31331;BME280;34067;39.548;-76.088;2023-07-29T07:23:50;101167.40;;;25.75;91.70
31331;BME280;34067;39.548;-76.088;2023-07-29T07:26:18;101169.61;;;25.62;90.17
31331;BME280;34067;39.548;-76.088;2023-07-29T07:28:45;101165.49;;;25.77;92.82
31331;BME280;34067;39.548;-76.088;2023-07-29T07:31:13;101149.61;;;26.60;90.13
31331;BME280;34067;39.548;-76.088;2023-07-29T07:33:41;101147.71;;;26.05;88.32
31331;BME280;34067;39.548;-76.088;2023-07-29T07:36:09;101149.99;;;25.93;89.25
31331;BME280;34067;39.548;-76.088;2023-07-29T07:38:36;101145.46;;;25.75;89.44
31331;BME280;34067;39.548;-76.088;2023-07-29T07:41:04;101128.00;;;26.31;88.46
31331;BME280;34067;39.548;-76.088;2023-07-29T07:43:32;101117.60;;;26.79;88.24
31331;BME280;34067;39.548;-76.088;2023-07-29T07:46:01;101109.25;;;27.00;86.18
31331;BME280;34067;39.548;-76.088;2023-07-29T07:48:29;101110.52;;;26.61;85.35
31331;BME280;34067;39.548;-76.088;2023-07-29T07:50:56;101114.74;;;26.59;85.96
31331;BME280;34067;39.548;-76.088;2023-07-29T07:53:24;101122.37;;;26.93;85.49
31331;BME280;34067;39.548;-76.088;2023-07-29T07:55:52;101138.63;;;25.34;89.29
31331;BME280;34067;39.548;-76.088;2023-07-29T07:58:21;101136.99;;;26.18;87.29
31331;BME280;34067;39.548;-76.088;2023-07-29T08:00:49;101139.32;;;25.20;90.86
31331;BME280;34067;39.548;-76.088;2023-07-29T08:03:17;101141.03;;;24.73;92.71
31331;BME280;34067;39.548;-76.088;2023-07-29T08:05:46;101135.50;;;25.88;89.50
31331;BME280;34067;39.548;-76.088;2023-07-29T08:08:13;101137.53;;;25.74;91.08
31331;BME280;34067;39.548;-76.088;2023-07-29T08:10:41;101144.46;;;25.62;90.53
31331;BME280;34067;39.548;-76.088;2023-07-29T08:13:09;101142.33;;;25.76;88.88
31331;BME280;34067;39.548;-76.088;2023-07-29T08:15:37;101151.56;;;25.06;92.97
31331;BME280;34067;39.548;-76.088;2023-07-29T08:18:04;101155.66;;;25.67;92.15
31331;BME280;34067;39.548;-76.088;2023-07-29T08:20:32;101150.05;;;25.93;89.89
31331;BME280;34067;39.548;-76.088;2023-07-29T08:23:00;101147.51;;;26.20;89.08
31331;BME280;34067;39.548;-76.088;2023-07-29T08:25:29;101159.81;;;26.23;89.50
31331;BME280;34067;39.548;-76.088;2023-07-29T08:27:56;101171.57;;;25.56;92.12
31331;BME280;34067;39.548;-76.088;2023-07-29T08:30:24;101180.38;;;24.35;96.51
31331;BME280;34067;39.548;-76.088;2023-07-29T08:32:52;101187.94;;;24.66;98.53
31331;BME280;34067;39.548;-76.088;2023-07-29T08:35:20;101187.94;;;24.51;100.00
31331;BME280;34067;39.548;-76.088;2023-07-29T08:37:48;101181.48;;;24.34;100.00
31331;BME280;34067;39.548;-76.088;2023-07-29T08:40:15;101191.22;;;24.39;100.00
31331;BME280;34067;39.548;-76.088;2023-07-29T08:42:45;101178.33;;;23.72;99.84
31331;BME280;34067;39.548;-76.088;2023-07-29T08:45:15;101179.93;;;23.15;100.00
31331;BME280;34067;39.548;-76.088;2023-07-29T08:47:45;101179.53;;;23.35;100.00
31331;BME280;34067;39.548;-76.088;2023-07-29T08:50:14;101166.63;;;23.64;100.00
31331;BME280;34067;39.548;-76.088;2023-07-29T08:52:43;101156.13;;;24.23;100.00
31331;BME280;34067;39.548;-76.088;2023-07-29T08:55:11;101147.83;;;25.06;97.27
31331;BME280;34067;39.548;-76.088;2023-07-29T08:57:39;101135.12;;;25.00;95.19
31331;BME280;34067;39.548;-76.088;2023-07-29T09:00:08;101136.40;;;25.68;92.10
31331;BME280;34067;39.548;-76.088;2023-07-29T09:02:37;101149.63;;;23.70;94.65
31331;BME280;34067;39.548;-76.088;2023-07-29T09:05:05;101153.86;;;24.44;96.18
31331;BME280;34067;39.548;-76.088;2023-07-29T09:07:34;101159.21;;;24.76;94.84
31331;BME280;34067;39.548;-76.088;2023-07-29T09:10:04;101161.50;;;24.74;94.20
31331;BME280;34067;39.548;-76.088;2023-07-29T09:12:32;101165.29;;;24.46;97.49
31331;BME280;34067;39.548;-76.088;2023-07-29T09:15:00;101167.43;;;24.26;98.53
31331;BME280;34067;39.548;-76.088;2023-07-29T09:17:31;101171.54;;;23.35;100.00
31331;BME280;34067;39.548;-76.088;2023-07-29T09:19:59;101180.57;;;23.74;100.00
31331;BME280;34067;39.548;-76.088;2023-07-29T09:22:27;101179.86;;;23.84;100.00
31331;BME280;34067;39.548;-76.088;2023-07-29T09:24:57;101175.69;;;25.56;94.30
31331;BME280;34067;39.548;-76.088;2023-07-29T09:27:26;101170.16;;;24.22;95.92
31331;BME280;34067;39.548;-76.088;2023-07-29T09:29:54;101168.36;;;24.37;98.48
31331;BME280;34067;39.548;-76.088;2023-07-29T09:32:24;101168.48;;;24.32;98.38
31331;BME280;34067;39.548;-76.088;2023-07-29T09:34:52;101176.00;;;23.66;97.67
31331;BME280;34067;39.548;-76.088;2023-07-29T09:37:21;101176.80;;;23.88;98.96
31331;BME280;34067;39.548;-76.088;2023-07-29T09:39:50;101179.06;;;24.38;97.05
31331;BME280;34067;39.548;-76.088;2023-07-29T09:42:19;101183.02;;;24.19;98.20
31331;BME280;34067;39.548;-76.088;2023-07-29T09:44:47;101184.70;;;23.30;100.00
31331;BME280;34067;39.548;-76.088;2023-07-29T09:47:20;101187.12;;;23.68;100.00
31331;BME280;34067;39.548;-76.088;2023-07-29T09:49:48;101192.07;;;23.82;100.00
31331;BME280;34067;39.548;-76.088;2023-07-29T09:52:17;101188.87;;;23.91;100.00
31331;BME280;34067;39.548;-76.088;2023-07-29T09:54:46;101177.88;;;23.39;100.00
31331;BME280;34067;39.548;-76.088;2023-07-29T09:57:16;101181.07;;;23.75;98.96
31331;BME280;34067;39.548;-76.088;2023-07-29T09:59:44;101192.08;;;24.37;97.40
31331;BME280;34067;39.548;-76.088;2023-07-29T10:02:21;101193.93;;;24.73;95.87
31331;BME280;34067;39.548;-76.088;2023-07-29T10:04:50;101189.71;;;24.54;96.00
31331;BME280;34067;39.548;-76.088;2023-07-29T10:07:19;101186.51;;;25.12;94.32
31331;BME280;34067;39.548;-76.088;2023-07-29T10:09:47;101194.26;;;25.11;92.77
31331;BME280;34067;39.548;-76.088;2023-07-29T10:12:15;101190.11;;;25.70;92.97
31331;BME280;34067;39.548;-76.088;2023-07-29T10:14:44;101188.74;;;25.79;88.99
31331;BME280;34067;39.548;-76.088;2023-07-29T10:17:14;101196.84;;;26.28;87.32
31331;BME280;34067;39.548;-76.088;2023-07-29T10:19:43;101202.51;;;26.38;86.47
31331;BME280;34067;39.548;-76.088;2023-07-29T10:22:13;101206.75;;;25.04;90.99
31331;BME280;34067;39.548;-76.088;2023-07-29T10:24:44;101203.89;;;25.55;87.96
31331;BME280;34067;39.548;-76.088;2023-07-29T10:27:15;101198.73;;;26.24;86.10
31331;BME280;34067;39.548;-76.088;2023-07-29T10:29:45;101201.38;;;26.09;85.52
31331;BME280;34067;39.548;-76.088;2023-07-29T10:32:14;101211.03;;;26.50;85.07
31331;BME280;34067;39.548;-76.088;2023-07-29T10:34:43;101207.04;;;26.42;83.70
31331;BME280;34067;39.548;-76.088;2023-07-29T10:37:11;101203.85;;;26.55;82.97
31331;BME280;34067;39.548;-76.088;2023-07-29T10:39:40;101207.97;;;26.53;82.85
31331;BME280;34067;39.548;-76.088;2023-07-29T10:42:07;101216.62;;;26.27;83.61
31331;BME280;34067;39.548;-76.088;2023-07-29T10:45:03;101226.48;;;26.61;82.79
31331;BME280;34067;39.548;-76.088;2023-07-29T10:47:44;101233.77;;;25.01;86.99
31331;BME280;34067;39.548;-76.088;2023-07-29T10:50:18;101235.86;;;26.07;84.66
31331;BME280;34067;39.548;-76.088;2023-07-29T10:52:50;101228.63;;;25.68;84.81
31331;BME280;34067;39.548;-76.088;2023-07-29T10:55:28;101223.22;;;26.35;84.39
31331;BME280;34067;39.548;-76.088;2023-07-29T10:58:29;101227.08;;;26.31;83.05
31331;BME280;34067;39.548;-76.088;2023-07-29T11:00:57;101238.16;;;24.50;92.30
31331;BME280;34067;39.548;-76.088;2023-07-29T11:03:25;101237.96;;;25.12;89.70
31331;BME280;34067;39.548;-76.088;2023-07-29T11:05:53;101244.57;;;26.10;86.77
31331;BME280;34067;39.548;-76.088;2023-07-29T11:08:26;101257.58;;;25.40;86.78
31331;BME280;34067;39.548;-76.088;2023-07-29T11:11:04;101248.71;;;25.83;85.47
31331;BME280;34067;39.548;-76.088;2023-07-29T11:13:34;101257.19;;;25.48;86.62
31331;BME280;34067;39.548;-76.088;2023-07-29T11:16:02;101257.97;;;25.85;84.68
31331;BME280;34067;39.548;-76.088;2023-07-29T11:18:32;101258.25;;;23.91;91.28
31331;BME280;34067;39.548;-76.088;2023-07-29T11:21:00;101253.26;;;26.03;87.44
31331;BME280;34067;39.548;-76.088;2023-07-29T11:23:30;101254.55;;;25.05;87.40
31331;BME280;34067;39.548;-76.088;2023-07-29T11:25:58;101254.09;;;25.83;85.22
31331;BME280;34067;39.548;-76.088;2023-07-29T11:28:27;101243.46;;;26.71;82.65
31331;BME280;34067;39.548;-76.088;2023-07-29T11:30:55;101247.74;;;25.88;86.25
31331;BME280;34067;39.548;-76.088;2023-07-29T11:33:25;101258.27;;;25.40;88.13
31331;BME280;34067;39.548;-76.088;2023-07-29T11:35:54;101262.95;;;26.13;84.92
31331;BME280;34067;39.548;-76.088;2023-07-29T11:38:22;101258.65;;;26.97;82.80
31331;BME280;34067;39.548;-76.088;2023-07-29T11:40:59;101253.07;;;27.42;81.14
31331;BME280;34067;39.548;-76.088;2023-07-29T11:43:27;101253.22;;;26.45;79.71
31331;BME280;34067;39.548;-76.088;2023-07-29T11:45:55;101250.29;;;26.20;82.46
31331;BME280;34067;39.548;-76.088;2023-07-29T11:48:27;101240.85;;;27.08;80.29
31331;BME280;34067;39.548;-76.088;2023-07-29T11:50:56;101236.59;;;27.43;77.96
31331;BME280;34067;39.548;-76.088;2023-07-29T11:53:27;101239.73;;;27.85;78.11
31331;BME280;34067;39.548;-76.088;2023-07-29T11:55:56;101247.94;;;25.91;84.08
31331;BME280;34067;39.548;-76.088;2023-07-29T11:58:24;101243.20;;;25.80;83.34
31331;BME280;34067;39.548;-76.088;2023-07-29T12:00:52;101241.17;;;26.36;83.43
31331;BME280;34067;39.548;-76.088;2023-07-29T12:03:20;101242.91;;;26.66;82.47
31331;BME280;34067;39.548;-76.088;2023-07-29T12:05:48;101234.13;;;26.93;80.48
31331;BME280;34067;39.548;-76.088;2023-07-29T12:08:17;101227.26;;;24.94;86.67
31331;BME280;34067;39.548;-76.088;2023-07-29T12:10:45;101220.56;;;26.84;83.23
31331;BME280;34067;39.548;-76.088;2023-07-29T12:13:13;101215.97;;;27.78;80.26
31331;BME280;34067;39.548;-76.088;2023-07-29T12:15:40;101214.32;;;27.46;78.82
31331;BME280;34067;39.548;-76.088;2023-07-29T12:18:08;101212.04;;;26.83;80.02
31331;BME280;34067;39.548;-76.088;2023-07-29T12:20:36;101210.52;;;28.05;78.42
31331;BME280;34067;39.548;-76.088;2023-07-29T12:23:04;101213.29;;;25.17;84.25
31331;BME280;34067;39.548;-76.088;2023-07-29T12:25:32;101202.85;;;27.35;79.85
31331;BME280;34067;39.548;-76.088;2023-07-29T12:28:05;101195.49;;;28.10;77.89
31331;BME280;34067;39.548;-76.088;2023-07-29T12:30:33;101200.17;;;26.74;77.04
31331;BME280;34067;39.548;-76.088;2023-07-29T12:33:01;101196.12;;;27.52;77.49
31331;BME280;34067;39.548;-76.088;2023-07-29T12:35:36;101191.93;;;28.30;76.87
31331;BME280;34067;39.548;-76.088;2023-07-29T12:38:04;101188.98;;;27.75;76.33